sensor_id;sensor_type;location;lat;lon;timestamp;P1;durP1;ratioP1;P2;durP2;ratioP2
10275;SDS011;5183;51.190;6.820;2022-10-03T00:02:12;19.03;;;7.00;;
10275;SDS011;5183;51.190;6.820;2022-10-03T00:04:53;12.53;;;5.73;;
10275;SDS011;5183;51.190;6.820;2022-10-03T00:07:40;19.60;;;6.03;;
10275;SDS011;5183;51.190;6.820;2022-10-03T00:10:26;18.43;;;6.20;;
10275;SDS011;5183;51.190;6.820;2022-10-03T00:13:02;19.97;;;6.40;;
10275;SDS011;5183;51.190;6.820;2022-10-03T00:15:37;19.13;;;6.40;;
10275;SDS011;5183;51.190;6.820;2022-10-03T00:18:12;19.47;;;6.37;;
10275;SDS011;5183;51.190;6.820;2022-10-03T00:20:51;19.70;;;6.63;;
10275;SDS011;5183;51.190;6.820;2022-10-03T00:23:34;16.00;;;5.90;;
10275;SDS011;5183;51.190;6.820;2022-10-03T00:26:08;21.30;;;7.07;;
10275;SDS011;5183;51.190;6.820;2022-10-03T00:29:04;17.40;;;6.37;;
10275;SDS011;5183;51.190;6.820;2022-10-03T00:31:46;16.87;;;5.47;;
10275;SDS011;5183;51.190;6.820;2022-10-03T00:34:28;15.70;;;5.77;;
10275;SDS011;5183;51.190;6.820;2022-10-03T00:40:03;15.43;;;6.60;;
10275;SDS011;5183;51.190;6.820;2022-10-03T00:52:21;14.67;;;5.90;;
10275;SDS011;5183;51.190;6.820;2022-10-03T00:55:05;14.40;;;6.07;;
10275;SDS011;5183;51.190;6.820;2022-10-03T00:57:47;17.03;;;6.40;;
10275;SDS011;5183;51.190;6.820;2022-10-03T01:00:28;18.40;;;6.57;;
10275;SDS011;5183;51.190;6.820;2022-10-03T01:03:03;20.27;;;6.90;;
10275;SDS011;5183;51.190;6.820;2022-10-03T01:05:55;19.00;;;6.73;;
10275;SDS011;5183;51.190;6.820;2022-10-03T01:08:35;14.90;;;5.90;;
10275;SDS011;5183;51.190;6.820;2022-10-03T01:11:16;14.10;;;5.87;;
10275;SDS011;5183;51.190;6.820;2022-10-03T01:13:55;15.77;;;6.70;;
10275;SDS011;5183;51.190;6.820;2022-10-03T01:16:33;12.80;;;6.13;;
10275;SDS011;5183;51.190;6.820;2022-10-03T01:19:17;16.07;;;6.37;;
10275;SDS011;5183;51.190;6.820;2022-10-03T01:22:13;17.90;;;6.33;;
10275;SDS011;5183;51.190;6.820;2022-10-03T01:24:52;15.87;;;6.13;;
10275;SDS011;5183;51.190;6.820;2022-10-03T01:27:27;18.47;;;6.83;;
10275;SDS011;5183;51.190;6.820;2022-10-03T01:30:24;19.33;;;6.13;;
10275;SDS011;5183;51.190;6.820;2022-10-03T01:32:55;18.63;;;6.20;;
10275;SDS011;5183;51.190;6.820;2022-10-03T01:35:31;19.93;;;7.13;;
10275;SDS011;5183;51.190;6.820;2022-10-03T01:38:08;17.40;;;6.07;;
10275;SDS011;5183;51.190;6.820;2022-10-03T01:40:46;19.90;;;6.80;;
10275;SDS011;5183;51.190;6.820;2022-10-03T01:43:20;21.77;;;6.90;;
10275;SDS011;5183;51.190;6.820;2022-10-03T01:46:03;17.17;;;7.03;;
10275;SDS011;5183;51.190;6.820;2022-10-03T01:48:40;17.57;;;6.27;;
10275;SDS011;5183;51.190;6.820;2022-10-03T01:51:13;15.93;;;6.30;;
10275;SDS011;5183;51.190;6.820;2022-10-03T01:53:47;14.63;;;6.30;;
10275;SDS011;5183;51.190;6.820;2022-10-03T01:56:26;19.87;;;6.83;;
10275;SDS011;5183;51.190;6.820;2022-10-03T01:59:01;16.10;;;6.13;;
10275;SDS011;5183;51.190;6.820;2022-10-03T02:01:35;19.23;;;6.80;;
10275;SDS011;5183;51.190;6.820;2022-10-03T02:04:11;18.50;;;6.80;;
10275;SDS011;5183;51.190;6.820;2022-10-03T02:06:49;16.33;;;6.60;;
10275;SDS011;5183;51.190;6.820;2022-10-03T02:09:26;17.77;;;7.13;;
10275;SDS011;5183;51.190;6.820;2022-10-03T02:14:52;17.17;;;6.90;;
10275;SDS011;5183;51.190;6.820;2022-10-03T02:17:27;19.33;;;7.30;;
10275;SDS011;5183;51.190;6.820;2022-10-03T02:20:11;18.83;;;7.27;;
10275;SDS011;5183;51.190;6.820;2022-10-03T02:22:48;14.53;;;7.50;;
10275;SDS011;5183;51.190;6.820;2022-10-03T02:25:20;16.30;;;7.77;;
10275;SDS011;5183;51.190;6.820;2022-10-03T02:31:05;15.00;;;7.10;;
10275;SDS011;5183;51.190;6.820;2022-10-03T02:34:01;19.03;;;8.03;;
10275;SDS011;5183;51.190;6.820;2022-10-03T02:36:45;14.23;;;7.47;;
10275;SDS011;5183;51.190;6.820;2022-10-03T02:39:46;14.37;;;6.90;;
10275;SDS011;5183;51.190;6.820;2022-10-03T02:42:58;17.17;;;7.53;;
10275;SDS011;5183;51.190;6.820;2022-10-03T02:45:58;16.70;;;7.07;;
10275;SDS011;5183;51.190;6.820;2022-10-03T02:52:16;14.47;;;6.90;;
10275;SDS011;5183;51.190;6.820;2022-10-03T03:03:58;16.07;;;7.43;;
10275;SDS011;5183;51.190;6.820;2022-10-03T03:06:51;18.10;;;7.70;;
10275;SDS011;5183;51.190;6.820;2022-10-03T03:09:37;17.97;;;8.50;;
10275;SDS011;5183;51.190;6.820;2022-10-03T03:12:38;17.97;;;8.60;;
10275;SDS011;5183;51.190;6.820;2022-10-03T03:15:45;14.67;;;7.50;;
10275;SDS011;5183;51.190;6.820;2022-10-03T03:18:32;15.33;;;7.33;;
10275;SDS011;5183;51.190;6.820;2022-10-03T03:21:10;19.27;;;8.53;;
10275;SDS011;5183;51.190;6.820;2022-10-03T03:23:48;20.03;;;9.03;;
10275;SDS011;5183;51.190;6.820;2022-10-03T03:26:28;25.13;;;9.20;;
10275;SDS011;5183;51.190;6.820;2022-10-03T03:29:18;20.13;;;10.23;;
10275;SDS011;5183;51.190;6.820;2022-10-03T03:31:53;23.00;;;10.40;;
10275;SDS011;5183;51.190;6.820;2022-10-03T03:34:29;22.90;;;10.37;;
10275;SDS011;5183;51.190;6.820;2022-10-03T03:37:03;23.73;;;10.30;;
10275;SDS011;5183;51.190;6.820;2022-10-03T03:39:37;22.90;;;10.40;;
10275;SDS011;5183;51.190;6.820;2022-10-03T03:42:27;25.97;;;10.53;;
10275;SDS011;5183;51.190;6.820;2022-10-03T03:45:20;22.63;;;10.57;;
10275;SDS011;5183;51.190;6.820;2022-10-03T03:48:02;23.00;;;10.77;;
10275;SDS011;5183;51.190;6.820;2022-10-03T03:50:48;20.37;;;10.40;;
10275;SDS011;5183;51.190;6.820;2022-10-03T03:56:48;18.53;;;9.97;;
10275;SDS011;5183;51.190;6.820;2022-10-03T03:59:28;16.60;;;10.13;;
10275;SDS011;5183;51.190;6.820;2022-10-03T04:02:17;20.20;;;9.87;;
10275;SDS011;5183;51.190;6.820;2022-10-03T04:04:59;25.60;;;10.53;;
10275;SDS011;5183;51.190;6.820;2022-10-03T04:07:44;19.60;;;10.37;;
10275;SDS011;5183;51.190;6.820;2022-10-03T04:13:30;18.00;;;10.40;;
10275;SDS011;5183;51.190;6.820;2022-10-03T04:16:17;22.97;;;10.50;;
10275;SDS011;5183;51.190;6.820;2022-10-03T04:19:07;26.40;;;11.10;;
10275;SDS011;5183;51.190;6.820;2022-10-03T04:25:00;19.67;;;10.80;;
10275;SDS011;5183;51.190;6.820;2022-10-03T04:30:47;22.33;;;11.17;;
10275;SDS011;5183;51.190;6.820;2022-10-03T04:33:29;20.67;;;10.53;;
10275;SDS011;5183;51.190;6.820;2022-10-03T04:39:05;24.97;;;11.00;;
10275;SDS011;5183;51.190;6.820;2022-10-03T04:41:41;19.37;;;9.93;;
10275;SDS011;5183;51.190;6.820;2022-10-03T04:44:17;19.83;;;9.70;;
10275;SDS011;5183;51.190;6.820;2022-10-03T04:46:57;24.17;;;9.93;;
10275;SDS011;5183;51.190;6.820;2022-10-03T04:49:29;18.17;;;10.17;;
10275;SDS011;5183;51.190;6.820;2022-10-03T04:52:13;22.23;;;10.60;;
10275;SDS011;5183;51.190;6.820;2022-10-03T04:54:49;22.23;;;10.50;;
10275;SDS011;5183;51.190;6.820;2022-10-03T04:57:24;20.70;;;10.17;;
10275;SDS011;5183;51.190;6.820;2022-10-03T04:59:58;19.27;;;9.80;;
10275;SDS011;5183;51.190;6.820;2022-10-03T05:02:40;17.27;;;10.10;;
10275;SDS011;5183;51.190;6.820;2022-10-03T05:05:17;17.43;;;9.50;;
10275;SDS011;5183;51.190;6.820;2022-10-03T05:07:52;20.67;;;10.00;;
10275;SDS011;5183;51.190;6.820;2022-10-03T05:10:33;18.93;;;9.57;;
10275;SDS011;5183;51.190;6.820;2022-10-03T05:13:11;17.90;;;10.13;;
10275;SDS011;5183;51.190;6.820;2022-10-03T05:15:44;16.13;;;9.40;;
10275;SDS011;5183;51.190;6.820;2022-10-03T05:18:25;16.13;;;9.63;;
10275;SDS011;5183;51.190;6.820;2022-10-03T05:21:00;20.10;;;10.60;;
10275;SDS011;5183;51.190;6.820;2022-10-03T05:23:40;20.20;;;11.40;;
10275;SDS011;5183;51.190;6.820;2022-10-03T05:26:17;19.27;;;10.80;;
10275;SDS011;5183;51.190;6.820;2022-10-03T05:28:50;24.40;;;11.40;;
10275;SDS011;5183;51.190;6.820;2022-10-03T05:31:27;20.53;;;10.50;;
10275;SDS011;5183;51.190;6.820;2022-10-03T05:34:03;22.57;;;11.63;;
10275;SDS011;5183;51.190;6.820;2022-10-03T05:36:47;18.57;;;10.80;;
10275;SDS011;5183;51.190;6.820;2022-10-03T05:39:29;27.37;;;11.67;;
10275;SDS011;5183;51.190;6.820;2022-10-03T05:45:17;20.93;;;10.37;;
10275;SDS011;5183;51.190;6.820;2022-10-03T05:47:53;22.63;;;11.23;;
10275;SDS011;5183;51.190;6.820;2022-10-03T05:50:38;20.67;;;11.27;;
10275;SDS011;5183;51.190;6.820;2022-10-03T05:53:42;23.53;;;11.03;;
10275;SDS011;5183;51.190;6.820;2022-10-03T05:56:37;23.10;;;11.10;;
10275;SDS011;5183;51.190;6.820;2022-10-03T06:02:22;21.40;;;11.73;;
10275;SDS011;5183;51.190;6.820;2022-10-03T06:05:14;24.87;;;12.07;;
10275;SDS011;5183;51.190;6.820;2022-10-03T06:08:00;18.73;;;11.37;;
10275;SDS011;5183;51.190;6.820;2022-10-03T06:10:53;27.33;;;11.63;;
10275;SDS011;5183;51.190;6.820;2022-10-03T06:13:35;27.53;;;11.30;;
10275;SDS011;5183;51.190;6.820;2022-10-03T06:16:17;24.40;;;12.13;;
10275;SDS011;5183;51.190;6.820;2022-10-03T06:19:02;24.00;;;11.30;;
10275;SDS011;5183;51.190;6.820;2022-10-03T06:31:26;23.87;;;13.17;;
10275;SDS011;5183;51.190;6.820;2022-10-03T06:43:28;21.97;;;11.67;;
10275;SDS011;5183;51.190;6.820;2022-10-03T06:49:30;19.43;;;11.37;;
10275;SDS011;5183;51.190;6.820;2022-10-03T06:52:10;19.10;;;11.13;;
10275;SDS011;5183;51.190;6.820;2022-10-03T07:00:59;23.67;;;11.33;;
10275;SDS011;5183;51.190;6.820;2022-10-03T07:03:53;21.83;;;10.87;;
10275;SDS011;5183;51.190;6.820;2022-10-03T07:09:45;24.23;;;11.47;;
10275;SDS011;5183;51.190;6.820;2022-10-03T07:18:47;18.87;;;12.17;;
10275;SDS011;5183;51.190;6.820;2022-10-03T07:21:39;30.63;;;16.97;;
10275;SDS011;5183;51.190;6.820;2022-10-03T07:27:44;23.47;;;13.53;;
10275;SDS011;5183;51.190;6.820;2022-10-03T07:30:23;23.37;;;12.70;;
10275;SDS011;5183;51.190;6.820;2022-10-03T07:39:27;19.70;;;10.57;;
10275;SDS011;5183;51.190;6.820;2022-10-03T07:45:32;19.10;;;10.20;;
10275;SDS011;5183;51.190;6.820;2022-10-03T07:51:12;19.97;;;10.87;;
10275;SDS011;5183;51.190;6.820;2022-10-03T07:57:00;19.57;;;10.57;;
10275;SDS011;5183;51.190;6.820;2022-10-03T08:00:01;17.73;;;9.70;;
10275;SDS011;5183;51.190;6.820;2022-10-03T08:02:50;16.03;;;9.50;;
10275;SDS011;5183;51.190;6.820;2022-10-03T08:05:46;17.90;;;9.63;;
10275;SDS011;5183;51.190;6.820;2022-10-03T08:11:28;15.80;;;9.70;;
10275;SDS011;5183;51.190;6.820;2022-10-03T08:14:15;17.70;;;9.57;;
10275;SDS011;5183;51.190;6.820;2022-10-03T08:17:04;17.27;;;9.47;;
10275;SDS011;5183;51.190;6.820;2022-10-03T08:20:10;17.23;;;9.80;;
10275;SDS011;5183;51.190;6.820;2022-10-03T08:23:11;14.93;;;9.37;;
10275;SDS011;5183;51.190;6.820;2022-10-03T08:25:52;17.93;;;10.00;;
10275;SDS011;5183;51.190;6.820;2022-10-03T08:28:34;18.60;;;9.80;;
10275;SDS011;5183;51.190;6.820;2022-10-03T08:31:34;16.33;;;8.97;;
10275;SDS011;5183;51.190;6.820;2022-10-03T08:34:29;21.93;;;11.87;;
10275;SDS011;5183;51.190;6.820;2022-10-03T08:40:03;16.53;;;10.37;;
10275;SDS011;5183;51.190;6.820;2022-10-03T08:43:09;18.93;;;10.63;;
10275;SDS011;5183;51.190;6.820;2022-10-03T08:45:58;16.27;;;10.40;;
10275;SDS011;5183;51.190;6.820;2022-10-03T08:48:41;15.43;;;10.30;;
10275;SDS011;5183;51.190;6.820;2022-10-03T08:54:33;23.80;;;11.33;;
10275;SDS011;5183;51.190;6.820;2022-10-03T09:00:20;19.00;;;9.97;;
10275;SDS011;5183;51.190;6.820;2022-10-03T09:06:30;18.10;;;9.40;;
10275;SDS011;5183;51.190;6.820;2022-10-03T09:09:33;20.30;;;10.30;;
10275;SDS011;5183;51.190;6.820;2022-10-03T09:12:29;16.80;;;9.40;;
10275;SDS011;5183;51.190;6.820;2022-10-03T09:21:31;15.53;;;8.03;;
10275;SDS011;5183;51.190;6.820;2022-10-03T09:24:14;14.70;;;8.70;;
10275;SDS011;5183;51.190;6.820;2022-10-03T09:32:51;16.03;;;8.33;;
10275;SDS011;5183;51.190;6.820;2022-10-03T09:35:37;18.30;;;9.23;;
10275;SDS011;5183;51.190;6.820;2022-10-03T09:41:41;17.50;;;9.50;;
10275;SDS011;5183;51.190;6.820;2022-10-03T09:44:31;17.37;;;8.93;;
10275;SDS011;5183;51.190;6.820;2022-10-03T09:47:16;18.77;;;8.23;;
10275;SDS011;5183;51.190;6.820;2022-10-03T09:50:19;16.47;;;8.77;;
10275;SDS011;5183;51.190;6.820;2022-10-03T09:59:30;16.37;;;8.10;;
10275;SDS011;5183;51.190;6.820;2022-10-03T10:02:13;15.70;;;7.07;;
10275;SDS011;5183;51.190;6.820;2022-10-03T10:05:08;12.60;;;5.80;;
10275;SDS011;5183;51.190;6.820;2022-10-03T10:08:09;13.07;;;5.00;;
10275;SDS011;5183;51.190;6.820;2022-10-03T10:14:12;14.33;;;5.67;;
10275;SDS011;5183;51.190;6.820;2022-10-03T10:17:17;14.57;;;6.17;;
10275;SDS011;5183;51.190;6.820;2022-10-03T10:29:28;9.17;;;4.23;;
10275;SDS011;5183;51.190;6.820;2022-10-03T10:35:54;12.17;;;4.57;;
10275;SDS011;5183;51.190;6.820;2022-10-03T10:38:54;14.07;;;3.77;;
10275;SDS011;5183;51.190;6.820;2022-10-03T10:41:59;9.53;;;4.10;;
10275;SDS011;5183;51.190;6.820;2022-10-03T10:48:06;9.47;;;3.20;;
10275;SDS011;5183;51.190;6.820;2022-10-03T10:54:04;7.30;;;2.80;;
10275;SDS011;5183;51.190;6.820;2022-10-03T10:57:01;9.90;;;2.90;;
10275;SDS011;5183;51.190;6.820;2022-10-03T11:02:58;7.87;;;2.90;;
10275;SDS011;5183;51.190;6.820;2022-10-03T11:09:24;5.47;;;1.87;;
10275;SDS011;5183;51.190;6.820;2022-10-03T11:12:19;5.93;;;2.50;;
10275;SDS011;5183;51.190;6.820;2022-10-03T11:18:42;8.33;;;2.47;;
10275;SDS011;5183;51.190;6.820;2022-10-03T11:21:42;7.87;;;2.00;;
10275;SDS011;5183;51.190;6.820;2022-10-03T11:27:58;7.77;;;2.07;;
10275;SDS011;5183;51.190;6.820;2022-10-03T11:31:16;5.27;;;1.90;;
10275;SDS011;5183;51.190;6.820;2022-10-03T11:37:09;4.40;;;2.07;;
10275;SDS011;5183;51.190;6.820;2022-10-03T11:39:55;7.40;;;2.10;;
10275;SDS011;5183;51.190;6.820;2022-10-03T11:42:36;6.37;;;1.90;;
10275;SDS011;5183;51.190;6.820;2022-10-03T11:45:16;7.33;;;2.20;;
10275;SDS011;5183;51.190;6.820;2022-10-03T11:47:52;7.20;;;1.90;;
10275;SDS011;5183;51.190;6.820;2022-10-03T11:50:41;6.53;;;2.20;;
10275;SDS011;5183;51.190;6.820;2022-10-03T11:53:18;6.37;;;1.80;;
10275;SDS011;5183;51.190;6.820;2022-10-03T11:55:56;4.57;;;2.13;;
10275;SDS011;5183;51.190;6.820;2022-10-03T11:58:32;4.87;;;2.10;;
10275;SDS011;5183;51.190;6.820;2022-10-03T12:01:24;5.03;;;2.00;;
10275;SDS011;5183;51.190;6.820;2022-10-03T12:04:02;6.57;;;2.20;;
10275;SDS011;5183;51.190;6.820;2022-10-03T12:06:45;6.70;;;1.60;;
10275;SDS011;5183;51.190;6.820;2022-10-03T12:09:44;3.43;;;1.77;;
10275;SDS011;5183;51.190;6.820;2022-10-03T12:12:22;7.23;;;1.83;;
10275;SDS011;5183;51.190;6.820;2022-10-03T12:14:56;5.43;;;1.80;;
10275;SDS011;5183;51.190;6.820;2022-10-03T12:17:30;6.30;;;1.70;;
10275;SDS011;5183;51.190;6.820;2022-10-03T12:20:01;8.57;;;1.70;;
10275;SDS011;5183;51.190;6.820;2022-10-03T12:22:38;5.60;;;1.73;;
10275;SDS011;5183;51.190;6.820;2022-10-03T12:25:16;6.30;;;2.30;;
10275;SDS011;5183;51.190;6.820;2022-10-03T12:27:49;7.40;;;1.90;;
10275;SDS011;5183;51.190;6.820;2022-10-03T12:30:22;3.93;;;1.50;;
10275;SDS011;5183;51.190;6.820;2022-10-03T12:33:01;3.53;;;1.53;;
10275;SDS011;5183;51.190;6.820;2022-10-03T12:35:47;5.27;;;2.60;;
10275;SDS011;5183;51.190;6.820;2022-10-03T12:38:24;5.43;;;1.70;;
10275;SDS011;5183;51.190;6.820;2022-10-03T12:41:05;4.83;;;2.00;;
10275;SDS011;5183;51.190;6.820;2022-10-03T12:43:48;4.20;;;1.50;;
10275;SDS011;5183;51.190;6.820;2022-10-03T12:46:24;7.53;;;2.20;;
10275;SDS011;5183;51.190;6.820;2022-10-03T12:49:01;5.80;;;1.90;;
10275;SDS011;5183;51.190;6.820;2022-10-03T12:51:35;5.83;;;1.60;;
10275;SDS011;5183;51.190;6.820;2022-10-03T12:54:15;4.37;;;1.83;;
10275;SDS011;5183;51.190;6.820;2022-10-03T12:57:07;3.47;;;1.73;;
10275;SDS011;5183;51.190;6.820;2022-10-03T12:59:59;5.27;;;1.73;;
10275;SDS011;5183;51.190;6.820;2022-10-03T13:02:32;5.17;;;2.00;;
10275;SDS011;5183;51.190;6.820;2022-10-03T13:07:55;6.77;;;3.00;;
10275;SDS011;5183;51.190;6.820;2022-10-03T13:10:28;8.53;;;3.67;;
10275;SDS011;5183;51.190;6.820;2022-10-03T13:13:05;6.27;;;3.27;;
10275;SDS011;5183;51.190;6.820;2022-10-03T13:18:49;6.67;;;2.50;;
10275;SDS011;5183;51.190;6.820;2022-10-03T13:21:26;4.83;;;1.73;;
10275;SDS011;5183;51.190;6.820;2022-10-03T13:24:06;5.40;;;1.73;;
10275;SDS011;5183;51.190;6.820;2022-10-03T13:26:47;4.80;;;2.00;;
10275;SDS011;5183;51.190;6.820;2022-10-03T13:29:20;5.07;;;1.90;;
10275;SDS011;5183;51.190;6.820;2022-10-03T13:31:59;7.13;;;2.70;;
10275;SDS011;5183;51.190;6.820;2022-10-03T13:34:33;6.23;;;2.57;;
10275;SDS011;5183;51.190;6.820;2022-10-03T13:37:11;5.60;;;2.20;;
10275;SDS011;5183;51.190;6.820;2022-10-03T13:39:46;6.50;;;2.70;;
10275;SDS011;5183;51.190;6.820;2022-10-03T13:42:17;8.87;;;2.70;;
10275;SDS011;5183;51.190;6.820;2022-10-03T13:44:48;5.57;;;1.73;;
10275;SDS011;5183;51.190;6.820;2022-10-03T13:47:26;4.77;;;1.67;;
10275;SDS011;5183;51.190;6.820;2022-10-03T13:50:00;6.53;;;1.70;;
10275;SDS011;5183;51.190;6.820;2022-10-03T13:52:34;5.93;;;1.90;;
10275;SDS011;5183;51.190;6.820;2022-10-03T13:55:21;7.73;;;2.00;;
10275;SDS011;5183;51.190;6.820;2022-10-03T14:00:53;4.50;;;1.70;;
10275;SDS011;5183;51.190;6.820;2022-10-03T14:03:36;4.63;;;3.40;;
10275;SDS011;5183;51.190;6.820;2022-10-03T14:06:15;3.83;;;1.40;;
10275;SDS011;5183;51.190;6.820;2022-10-03T14:08:57;4.43;;;1.90;;
10275;SDS011;5183;51.190;6.820;2022-10-03T14:11:39;4.30;;;1.40;;
10275;SDS011;5183;51.190;6.820;2022-10-03T14:14:28;5.17;;;1.70;;
10275;SDS011;5183;51.190;6.820;2022-10-03T14:17:04;5.80;;;1.70;;
10275;SDS011;5183;51.190;6.820;2022-10-03T14:19:38;3.73;;;1.30;;
10275;SDS011;5183;51.190;6.820;2022-10-03T14:25:17;5.97;;;2.10;;
10275;SDS011;5183;51.190;6.820;2022-10-03T14:27:51;6.47;;;2.10;;
10275;SDS011;5183;51.190;6.820;2022-10-03T14:30:21;5.30;;;1.90;;
10275;SDS011;5183;51.190;6.820;2022-10-03T14:32:56;2.70;;;1.37;;
10275;SDS011;5183;51.190;6.820;2022-10-03T14:35:35;6.00;;;1.97;;
10275;SDS011;5183;51.190;6.820;2022-10-03T14:38:10;4.80;;;1.40;;
10275;SDS011;5183;51.190;6.820;2022-10-03T14:40:48;5.50;;;1.77;;
10275;SDS011;5183;51.190;6.820;2022-10-03T14:43:29;3.23;;;1.67;;
10275;SDS011;5183;51.190;6.820;2022-10-03T14:46:03;6.50;;;1.53;;
10275;SDS011;5183;51.190;6.820;2022-10-03T14:48:33;4.57;;;1.73;;
10275;SDS011;5183;51.190;6.820;2022-10-03T14:51:07;3.33;;;1.40;;
10275;SDS011;5183;51.190;6.820;2022-10-03T14:53:39;3.30;;;1.23;;
10275;SDS011;5183;51.190;6.820;2022-10-03T14:56:13;4.67;;;1.60;;
10275;SDS011;5183;51.190;6.820;2022-10-03T14:58:47;3.93;;;1.60;;
10275;SDS011;5183;51.190;6.820;2022-10-03T15:01:16;2.97;;;1.60;;
10275;SDS011;5183;51.190;6.820;2022-10-03T15:03:51;6.87;;;2.00;;
10275;SDS011;5183;51.190;6.820;2022-10-03T15:06:30;3.07;;;1.43;;
10275;SDS011;5183;51.190;6.820;2022-10-03T15:09:00;4.63;;;1.50;;
10275;SDS011;5183;51.190;6.820;2022-10-03T15:11:32;3.70;;;1.53;;
10275;SDS011;5183;51.190;6.820;2022-10-03T15:14:01;5.27;;;1.43;;
10275;SDS011;5183;51.190;6.820;2022-10-03T15:16:31;3.43;;;1.40;;
10275;SDS011;5183;51.190;6.820;2022-10-03T15:19:02;2.90;;;1.93;;
10275;SDS011;5183;51.190;6.820;2022-10-03T15:21:34;4.60;;;1.60;;
10275;SDS011;5183;51.190;6.820;2022-10-03T15:24:03;4.17;;;1.50;;
10275;SDS011;5183;51.190;6.820;2022-10-03T15:26:38;5.53;;;1.90;;
10275;SDS011;5183;51.190;6.820;2022-10-03T15:29:10;5.13;;;1.97;;
10275;SDS011;5183;51.190;6.820;2022-10-03T15:31:42;5.40;;;1.93;;
10275;SDS011;5183;51.190;6.820;2022-10-03T15:34:13;6.77;;;2.37;;
10275;SDS011;5183;51.190;6.820;2022-10-03T15:36:45;8.30;;;2.40;;
10275;SDS011;5183;51.190;6.820;2022-10-03T15:39:18;4.37;;;1.90;;
10275;SDS011;5183;51.190;6.820;2022-10-03T15:41:51;3.40;;;1.60;;
10275;SDS011;5183;51.190;6.820;2022-10-03T15:44:21;3.80;;;1.90;;
10275;SDS011;5183;51.190;6.820;2022-10-03T15:46:57;4.13;;;1.70;;
10275;SDS011;5183;51.190;6.820;2022-10-03T15:49:29;3.50;;;1.50;;
10275;SDS011;5183;51.190;6.820;2022-10-03T15:52:05;2.17;;;1.33;;
10275;SDS011;5183;51.190;6.820;2022-10-03T15:54:39;4.57;;;2.10;;
10275;SDS011;5183;51.190;6.820;2022-10-03T15:57:15;3.87;;;1.80;;
10275;SDS011;5183;51.190;6.820;2022-10-03T15:59:48;4.07;;;2.07;;
10275;SDS011;5183;51.190;6.820;2022-10-03T16:02:20;4.43;;;2.10;;
10275;SDS011;5183;51.190;6.820;2022-10-03T16:04:54;7.27;;;3.00;;
10275;SDS011;5183;51.190;6.820;2022-10-03T16:07:23;5.17;;;1.50;;
10275;SDS011;5183;51.190;6.820;2022-10-03T16:10:02;4.93;;;1.70;;
10275;SDS011;5183;51.190;6.820;2022-10-03T16:12:45;4.63;;;1.80;;
10275;SDS011;5183;51.190;6.820;2022-10-03T16:15:42;4.30;;;1.80;;
10275;SDS011;5183;51.190;6.820;2022-10-03T16:24:30;4.23;;;1.80;;
10275;SDS011;5183;51.190;6.820;2022-10-03T16:27:07;2.67;;;1.40;;
10275;SDS011;5183;51.190;6.820;2022-10-03T16:29:43;4.23;;;1.90;;
10275;SDS011;5183;51.190;6.820;2022-10-03T16:32:16;7.07;;;1.83;;
10275;SDS011;5183;51.190;6.820;2022-10-03T16:34:46;5.60;;;2.50;;
10275;SDS011;5183;51.190;6.820;2022-10-03T16:37:16;6.07;;;2.40;;
10275;SDS011;5183;51.190;6.820;2022-10-03T16:39:46;4.10;;;1.80;;
10275;SDS011;5183;51.190;6.820;2022-10-03T16:42:21;4.43;;;2.13;;
10275;SDS011;5183;51.190;6.820;2022-10-03T16:44:52;5.40;;;2.40;;
10275;SDS011;5183;51.190;6.820;2022-10-03T16:50:20;5.87;;;2.27;;
10275;SDS011;5183;51.190;6.820;2022-10-03T16:52:50;4.27;;;2.30;;
10275;SDS011;5183;51.190;6.820;2022-10-03T16:55:21;4.20;;;2.10;;
10275;SDS011;5183;51.190;6.820;2022-10-03T16:57:53;6.57;;;2.30;;
10275;SDS011;5183;51.190;6.820;2022-10-03T17:00:25;6.40;;;2.73;;
10275;SDS011;5183;51.190;6.820;2022-10-03T17:02:58;3.47;;;2.17;;
10275;SDS011;5183;51.190;6.820;2022-10-03T17:05:26;6.97;;;2.47;;
10275;SDS011;5183;51.190;6.820;2022-10-03T17:07:57;7.50;;;2.37;;
10275;SDS011;5183;51.190;6.820;2022-10-03T17:10:28;6.73;;;2.27;;
10275;SDS011;5183;51.190;6.820;2022-10-03T17:13:02;4.47;;;2.20;;
10275;SDS011;5183;51.190;6.820;2022-10-03T17:15:40;5.50;;;2.20;;
10275;SDS011;5183;51.190;6.820;2022-10-03T17:18:15;4.37;;;2.27;;
10275;SDS011;5183;51.190;6.820;2022-10-03T17:20:48;5.50;;;2.30;;
10275;SDS011;5183;51.190;6.820;2022-10-03T17:26:06;5.77;;;2.80;;
10275;SDS011;5183;51.190;6.820;2022-10-03T17:28:39;9.20;;;3.57;;
10275;SDS011;5183;51.190;6.820;2022-10-03T17:31:19;7.87;;;3.70;;
10275;SDS011;5183;51.190;6.820;2022-10-03T17:33:54;6.30;;;3.80;;
10275;SDS011;5183;51.190;6.820;2022-10-03T17:39:41;6.30;;;3.83;;
10275;SDS011;5183;51.190;6.820;2022-10-03T17:42:17;5.60;;;3.70;;
10275;SDS011;5183;51.190;6.820;2022-10-03T17:44:56;6.73;;;3.53;;
10275;SDS011;5183;51.190;6.820;2022-10-03T17:47:37;6.47;;;3.57;;
10275;SDS011;5183;51.190;6.820;2022-10-03T17:50:14;8.57;;;4.70;;
10275;SDS011;5183;51.190;6.820;2022-10-03T17:52:45;7.83;;;4.33;;
10275;SDS011;5183;51.190;6.820;2022-10-03T17:55:15;7.83;;;4.73;;
10275;SDS011;5183;51.190;6.820;2022-10-03T17:57:47;7.93;;;3.67;;
10275;SDS011;5183;51.190;6.820;2022-10-03T18:00:19;8.50;;;4.20;;
10275;SDS011;5183;51.190;6.820;2022-10-03T18:02:56;23.30;;;17.97;;
10275;SDS011;5183;51.190;6.820;2022-10-03T18:05:26;30.53;;;25.47;;
10275;SDS011;5183;51.190;6.820;2022-10-03T18:08:00;24.63;;;20.47;;
10275;SDS011;5183;51.190;6.820;2022-10-03T18:10:33;9.67;;;6.30;;
10275;SDS011;5183;51.190;6.820;2022-10-03T18:13:12;8.03;;;4.90;;
10275;SDS011;5183;51.190;6.820;2022-10-03T18:15:52;7.00;;;4.23;;
10275;SDS011;5183;51.190;6.820;2022-10-03T18:21:32;8.00;;;4.67;;
10275;SDS011;5183;51.190;6.820;2022-10-03T18:24:16;8.27;;;4.70;;
10275;SDS011;5183;51.190;6.820;2022-10-03T18:27:17;10.33;;;5.07;;
10275;SDS011;5183;51.190;6.820;2022-10-03T18:30:02;7.97;;;4.77;;
10275;SDS011;5183;51.190;6.820;2022-10-03T18:32:32;7.53;;;4.40;;
10275;SDS011;5183;51.190;6.820;2022-10-03T18:35:08;10.00;;;4.50;;
10275;SDS011;5183;51.190;6.820;2022-10-03T18:37:50;10.80;;;5.33;;
10275;SDS011;5183;51.190;6.820;2022-10-03T18:40:22;7.77;;;4.13;;
10275;SDS011;5183;51.190;6.820;2022-10-03T18:42:52;7.53;;;4.67;;
10275;SDS011;5183;51.190;6.820;2022-10-03T18:45:20;10.40;;;4.90;;
10275;SDS011;5183;51.190;6.820;2022-10-03T18:47:52;9.40;;;4.70;;
10275;SDS011;5183;51.190;6.820;2022-10-03T18:50:26;9.93;;;6.63;;
10275;SDS011;5183;51.190;6.820;2022-10-03T18:52:59;9.00;;;6.70;;
10275;SDS011;5183;51.190;6.820;2022-10-03T18:55:34;9.70;;;5.65;;
10275;SDS011;5183;51.190;6.820;2022-10-03T18:58:07;8.27;;;4.83;;
10275;SDS011;5183;51.190;6.820;2022-10-03T19:00:44;7.90;;;4.57;;
10275;SDS011;5183;51.190;6.820;2022-10-03T19:03:17;9.73;;;6.00;;
10275;SDS011;5183;51.190;6.820;2022-10-03T19:05:50;9.53;;;5.60;;
10275;SDS011;5183;51.190;6.820;2022-10-03T19:08:23;7.80;;;5.50;;
10275;SDS011;5183;51.190;6.820;2022-10-03T19:10:53;8.27;;;5.70;;
10275;SDS011;5183;51.190;6.820;2022-10-03T19:13:27;11.10;;;5.63;;
10275;SDS011;5183;51.190;6.820;2022-10-03T19:18:55;9.37;;;5.27;;
10275;SDS011;5183;51.190;6.820;2022-10-03T19:21:33;7.67;;;5.83;;
10275;SDS011;5183;51.190;6.820;2022-10-03T19:24:03;8.27;;;5.77;;
10275;SDS011;5183;51.190;6.820;2022-10-03T19:26:36;9.67;;;6.03;;
10275;SDS011;5183;51.190;6.820;2022-10-03T19:29:08;9.27;;;6.50;;
10275;SDS011;5183;51.190;6.820;2022-10-03T19:31:42;9.43;;;6.43;;
10275;SDS011;5183;51.190;6.820;2022-10-03T19:34:17;10.10;;;6.77;;
10275;SDS011;5183;51.190;6.820;2022-10-03T19:36:50;13.00;;;7.40;;
10275;SDS011;5183;51.190;6.820;2022-10-03T19:39:18;14.20;;;7.43;;
10275;SDS011;5183;51.190;6.820;2022-10-03T19:41:49;12.27;;;7.07;;
10275;SDS011;5183;51.190;6.820;2022-10-03T19:44:19;9.37;;;6.80;;
10275;SDS011;5183;51.190;6.820;2022-10-03T19:46:53;11.43;;;7.00;;
10275;SDS011;5183;51.190;6.820;2022-10-03T19:49:30;11.97;;;7.50;;